Airfield :







YOU CAN JOIN US ON...

 
LOGIN :

Register | Disclaimer

   EN    FR    IT 

 









Legend :    VFR   Marginal VFR   IFR   Intensive IFR   Very Intensive IFR
Visi :
Ceiling :
>= 8 km
>= 3000ft
5 to 8 km
1000 to 3000 ft
1500m to 5 km
500 to 1000 ft
800 to 1500m
200 to 500 ft
< 800m
< 200 ft
Symbols :   Thunderstorms  Fog  Heavy snow  Heavy precipitations  Wind > 20 kt






- Airport Elevation : 40 ft
- IATA code : YRF


CYCA - Cartwright

CURRENT METAR :
  • 162101Z AUTO 25015G24KT 9SM -SN OVC024 M03/M06 A2908 RMK SLP848

EXPIRED METARs :
  • 162012Z AUTO 25016G25KT 9SM -SN OVC026 M04/M07 A2908 RMK SLP850
  • 162006Z AUTO 25018G29KT 9SM OVC026 M04/M07 A2908 RMK SLP850
  • 161949Z AUTO 23017G28KT 6SM -SN FEW018 OVC026 M05/M07 A2908 RMK SLP851
  • 161943Z AUTO 24017G26KT 2SM -SN FEW018 BKN026 OVC031 M05/M07 A2908 RMK SLP850
  • 161923Z AUTO 23019G29KT 1 1/2SM -SN SCT024 OVC033 M05/M07 A2908 RMK VIS VRB 3/4-2 1/2 SLP850
  • 161912Z AUTO 24018G32KT 1 1/4SM -SN FEW016 BKN024 OVC035 M05/M07 A2908 RMK SLP850
  • 161858Z AUTO 24019G31KT 1 3/4SM -SN OVC030 M05/M07 A2909 RMK SLP852
  • 161851Z AUTO 24018G35KT 5SM -SN OVC034 M05/M09 A2909 RMK SLP853
  • 161817Z AUTO 23019G29KT 9SM -SN OVC060 M04/M10 A2910 RMK SLP856

TAF TAF CYCA
Valid from the 16 at 20:00 until the 17 at 08:00 UTC


161938Z 1620/1708 23020G30KT 3/4SM -SHSN OVC012
TEMPO 1620/1622 6SM -SN OVC025
FM162200 28020G35KT 3/4SM -SHSN BLSN VV007
TEMPO 1622/1702 P6SM -SHSNRA OVC012
BECMG 1700/1702 30030G55KT
FM170200 30030G55KT 3/4SM -SHSN BLSN VV007
FM170600 30030G50KT 4SM -SN BLSN BKN020 RMK FCST BASED ON AUTO OBS. NXT FCST BY 170200Z



MET'MAP, your aeronautical weather chart ! - Copyright ORBIFLY December 2007 - Disclaimer

ORBIFLY MET'MAP TEAM :

Programming & Development : Alexandra Zaïnal
Concept & Development : Baudouin d'Aumeries
Co-Development & Prog : Marc-Olivier Méhu
Technical & hardware support : Manuel Goepfert

Contact : metmap@orbifly.com




SOURCES & CREDITS :

   NOAA